sensor_id;sensor_type;location;lat;lon;timestamp;temperature;humidity
6174;DHT22;3120;48.796;9.796;2023-04-03T00:01:34;4.10;1.00
6174;DHT22;3120;48.796;9.796;2023-04-03T00:04:00;4.10;24.40
6174;DHT22;3120;48.796;9.796;2023-04-03T00:06:26;4.10;92.00
6174;DHT22;3120;48.796;9.796;2023-04-03T00:08:52;4.20;99.90
6174;DHT22;3120;48.796;9.796;2023-04-03T00:11:18;4.10;99.90
6174;DHT22;3120;48.796;9.796;2023-04-03T00:13:45;4.20;99.90
6174;DHT22;3120;48.796;9.796;2023-04-03T00:16:11;4.10;1.00
6174;DHT22;3120;48.796;9.796;2023-04-03T00:18:38;4.10;10.30
6174;DHT22;3120;48.796;9.796;2023-04-03T00:21:05;4.10;1.00
6174;DHT22;3120;48.796;9.796;2023-04-03T00:23:31;4.10;1.00
6174;DHT22;3120;48.796;9.796;2023-04-03T00:25:57;4.10;99.90
6174;DHT22;3120;48.796;9.796;2023-04-03T00:28:22;4.10;1.00
6174;DHT22;3120;48.796;9.796;2023-04-03T00:30:49;4.00;99.90
6174;DHT22;3120;48.796;9.796;2023-04-03T00:33:15;4.00;1.00
6174;DHT22;3120;48.796;9.796;2023-04-03T00:35:41;3.90;1.00
6174;DHT22;3120;48.796;9.796;2023-04-03T00:38:07;4.00;99.90
6174;DHT22;3120;48.796;9.796;2023-04-03T00:40:35;4.10;1.00
6174;DHT22;3120;48.796;9.796;2023-04-03T00:43:01;4.10;1.00
6174;DHT22;3120;48.796;9.796;2023-04-03T00:45:32;4.10;1.00
6174;DHT22;3120;48.796;9.796;2023-04-03T00:48:00;5.70;1.00
6174;DHT22;3120;48.796;9.796;2023-04-03T00:50:28;4.10;1.00
6174;DHT22;3120;48.796;9.796;2023-04-03T00:52:55;4.10;1.00
6174;DHT22;3120;48.796;9.796;2023-04-03T00:55:22;4.10;1.00
6174;DHT22;3120;48.796;9.796;2023-04-03T00:57:48;4.10;99.90
6174;DHT22;3120;48.796;9.796;2023-04-03T01:00:17;4.00;5.70
6174;DHT22;3120;48.796;9.796;2023-04-03T01:02:44;4.00;99.90
6174;DHT22;3120;48.796;9.796;2023-04-03T01:05:10;4.00;99.90
6174;DHT22;3120;48.796;9.796;2023-04-03T01:07:36;4.00;1.00
6174;DHT22;3120;48.796;9.796;2023-04-03T01:10:09;4.00;1.00
6174;DHT22;3120;48.796;9.796;2023-04-03T01:12:37;3.90;99.90
6174;DHT22;3120;48.796;9.796;2023-04-03T01:15:13;4.00;1.00
6174;DHT22;3120;48.796;9.796;2023-04-03T01:17:55;4.00;99.90
6174;DHT22;3120;48.796;9.796;2023-04-03T01:25:41;3.90;1.00
6174;DHT22;3120;48.796;9.796;2023-04-03T01:28:15;4.00;1.00
6174;DHT22;3120;48.796;9.796;2023-04-03T01:30:59;4.00;99.90
6174;DHT22;3120;48.796;9.796;2023-04-03T01:33:26;3.90;1.00
6174;DHT22;3120;48.796;9.796;2023-04-03T01:35:51;3.90;99.90
6174;DHT22;3120;48.796;9.796;2023-04-03T01:38:17;3.90;1.00
6174;DHT22;3120;48.796;9.796;2023-04-03T01:40:43;4.00;99.90
6174;DHT22;3120;48.796;9.796;2023-04-03T01:43:08;4.00;99.90
6174;DHT22;3120;48.796;9.796;2023-04-03T01:45:34;4.00;84.30
6174;DHT22;3120;48.796;9.796;2023-04-03T01:48:00;4.00;99.90
6174;DHT22;3120;48.796;9.796;2023-04-03T01:50:26;5.30;99.90
6174;DHT22;3120;48.796;9.796;2023-04-03T01:52:51;4.00;99.90
6174;DHT22;3120;48.796;9.796;2023-04-03T01:55:17;4.00;1.00
6174;DHT22;3120;48.796;9.796;2023-04-03T01:57:42;4.00;1.00
6174;DHT22;3120;48.796;9.796;2023-04-03T02:00:08;3.90;99.90
6174;DHT22;3120;48.796;9.796;2023-04-03T02:03:01;4.00;1.00
6174;DHT22;3120;48.796;9.796;2023-04-03T02:05:30;5.10;99.90
6174;DHT22;3120;48.796;9.796;2023-04-03T02:07:56;3.90;1.00
6174;DHT22;3120;48.796;9.796;2023-04-03T02:10:21;5.20;99.90
6174;DHT22;3120;48.796;9.796;2023-04-03T02:12:47;4.00;99.90
6174;DHT22;3120;48.796;9.796;2023-04-03T02:15:13;4.10;39.20
6174;DHT22;3120;48.796;9.796;2023-04-03T02:17:38;4.00;1.00
6174;DHT22;3120;48.796;9.796;2023-04-03T02:20:05;4.00;1.00
6174;DHT22;3120;48.796;9.796;2023-04-03T02:22:30;4.00;1.00
6174;DHT22;3120;48.796;9.796;2023-04-03T02:24:56;3.90;99.90
6174;DHT22;3120;48.796;9.796;2023-04-03T02:27:22;4.00;99.90
6174;DHT22;3120;48.796;9.796;2023-04-03T02:29:47;4.00;29.60
6174;DHT22;3120;48.796;9.796;2023-04-03T02:32:13;3.90;29.20
6174;DHT22;3120;48.796;9.796;2023-04-03T02:34:38;4.00;99.90
6174;DHT22;3120;48.796;9.796;2023-04-03T02:37:04;4.00;99.90
6174;DHT22;3120;48.796;9.796;2023-04-03T02:39:29;3.90;1.00
6174;DHT22;3120;48.796;9.796;2023-04-03T02:41:55;3.80;99.90
6174;DHT22;3120;48.796;9.796;2023-04-03T02:44:21;4.50;1.00
6174;DHT22;3120;48.796;9.796;2023-04-03T02:46:46;3.90;1.00
6174;DHT22;3120;48.796;9.796;2023-04-03T02:49:12;3.90;99.90
6174;DHT22;3120;48.796;9.796;2023-04-03T02:51:37;3.90;30.00
6174;DHT22;3120;48.796;9.796;2023-04-03T02:54:03;4.40;99.90
6174;DHT22;3120;48.796;9.796;2023-04-03T02:56:29;3.90;99.90
6174;DHT22;3120;48.796;9.796;2023-04-03T02:58:55;3.80;99.90
6174;DHT22;3120;48.796;9.796;2023-04-03T03:01:21;3.80;1.00
6174;DHT22;3120;48.796;9.796;2023-04-03T03:03:47;3.80;1.00
6174;DHT22;3120;48.796;9.796;2023-04-03T03:06:15;4.50;99.90
6174;DHT22;3120;48.796;9.796;2023-04-03T03:08:41;3.90;99.90
6174;DHT22;3120;48.796;9.796;2023-04-03T03:11:07;3.90;99.90
6174;DHT22;3120;48.796;9.796;2023-04-03T03:13:33;3.90;99.90
6174;DHT22;3120;48.796;9.796;2023-04-03T03:15:59;3.90;99.90
6174;DHT22;3120;48.796;9.796;2023-04-03T03:18:25;3.80;1.00
6174;DHT22;3120;48.796;9.796;2023-04-03T03:20:59;3.80;99.90
6174;DHT22;3120;48.796;9.796;2023-04-03T03:23:26;3.80;1.00
6174;DHT22;3120;48.796;9.796;2023-04-03T03:25:57;3.80;1.00
6174;DHT22;3120;48.796;9.796;2023-04-03T03:28:23;4.90;99.90
6174;DHT22;3120;48.796;9.796;2023-04-03T03:30:49;3.90;99.90
6174;DHT22;3120;48.796;9.796;2023-04-03T03:33:14;4.00;1.00
6174;DHT22;3120;48.796;9.796;2023-04-03T03:35:40;3.90;99.90
6174;DHT22;3120;48.796;9.796;2023-04-03T03:38:06;4.00;99.90
6174;DHT22;3120;48.796;9.796;2023-04-03T03:40:31;3.90;99.90
6174;DHT22;3120;48.796;9.796;2023-04-03T03:42:57;3.90;1.00
6174;DHT22;3120;48.796;9.796;2023-04-03T03:45:26;3.90;1.00
6174;DHT22;3120;48.796;9.796;2023-04-03T03:47:52;3.90;1.00
6174;DHT22;3120;48.796;9.796;2023-04-03T03:50:18;3.90;99.90
6174;DHT22;3120;48.796;9.796;2023-04-03T03:52:43;3.90;99.90
6174;DHT22;3120;48.796;9.796;2023-04-03T03:55:09;3.90;99.90
6174;DHT22;3120;48.796;9.796;2023-04-03T03:57:35;3.90;17.40
6174;DHT22;3120;48.796;9.796;2023-04-03T04:00:01;3.90;10.30
6174;DHT22;3120;48.796;9.796;2023-04-03T04:02:27;4.10;48.00
6174;DHT22;3120;48.796;9.796;2023-04-03T04:04:52;5.70;42.40
6174;DHT22;3120;48.796;9.796;2023-04-03T04:07:18;3.80;99.90
6174;DHT22;3120;48.796;9.796;2023-04-03T04:09:44;3.80;96.90
6174;DHT22;3120;48.796;9.796;2023-04-03T04:12:09;3.70;99.90
6174;DHT22;3120;48.796;9.796;2023-04-03T04:14:35;3.70;99.90
6174;DHT22;3120;48.796;9.796;2023-04-03T04:17:00;3.70;99.90
6174;DHT22;3120;48.796;9.796;2023-04-03T04:19:27;3.80;1.00
6174;DHT22;3120;48.796;9.796;2023-04-03T04:21:53;3.70;2.70
6174;DHT22;3120;48.796;9.796;2023-04-03T04:24:19;3.70;15.70
6174;DHT22;3120;48.796;9.796;2023-04-03T04:26:44;3.00;74.40
6174;DHT22;3120;48.796;9.796;2023-04-03T04:32:32;3.70;1.00
6174;DHT22;3120;48.796;9.796;2023-04-03T04:34:57;3.70;1.00
6174;DHT22;3120;48.796;9.796;2023-04-03T04:37:23;3.60;1.00
6174;DHT22;3120;48.796;9.796;2023-04-03T04:39:48;3.50;1.00
6174;DHT22;3120;48.796;9.796;2023-04-03T04:42:14;3.40;99.90
6174;DHT22;3120;48.796;9.796;2023-04-03T04:44:46;4.60;99.90
6174;DHT22;3120;48.796;9.796;2023-04-03T04:47:21;4.50;99.90
6174;DHT22;3120;48.796;9.796;2023-04-03T04:49:47;4.40;99.90
6174;DHT22;3120;48.796;9.796;2023-04-03T04:52:13;3.20;99.90
6174;DHT22;3120;48.796;9.796;2023-04-03T04:54:39;4.10;99.90
6174;DHT22;3120;48.796;9.796;2023-04-03T04:57:09;3.10;1.00
6174;DHT22;3120;48.796;9.796;2023-04-03T04:59:37;3.00;1.00
6174;DHT22;3120;48.796;9.796;2023-04-03T05:02:04;3.00;1.00
6174;DHT22;3120;48.796;9.796;2023-04-03T05:04:30;2.90;99.90
6174;DHT22;3120;48.796;9.796;2023-04-03T05:06:56;2.90;1.00
6174;DHT22;3120;48.796;9.796;2023-04-03T05:09:23;2.90;99.90
6174;DHT22;3120;48.796;9.796;2023-04-03T05:11:48;2.80;1.00
6174;DHT22;3120;48.796;9.796;2023-04-03T05:14:14;4.80;1.00
6174;DHT22;3120;48.796;9.796;2023-04-03T05:16:40;2.80;56.80
6174;DHT22;3120;48.796;9.796;2023-04-03T05:19:06;1.50;1.00
6174;DHT22;3120;48.796;9.796;2023-04-03T05:21:32;2.60;67.30
6174;DHT22;3120;48.796;9.796;2023-04-03T05:23:59;4.10;1.00
6174;DHT22;3120;48.796;9.796;2023-04-03T05:26:28;4.00;1.00
6174;DHT22;3120;48.796;9.796;2023-04-03T05:28:54;4.10;1.00
6174;DHT22;3120;48.796;9.796;2023-04-03T05:31:20;2.90;76.80
6174;DHT22;3120;48.796;9.796;2023-04-03T05:33:45;4.50;1.00
6174;DHT22;3120;48.796;9.796;2023-04-03T05:36:12;3.00;1.00
6174;DHT22;3120;48.796;9.796;2023-04-03T05:38:38;3.00;1.00
6174;DHT22;3120;48.796;9.796;2023-04-03T05:41:05;3.20;99.90
6174;DHT22;3120;48.796;9.796;2023-04-03T05:43:31;4.10;1.00
6174;DHT22;3120;48.796;9.796;2023-04-03T05:45:56;3.20;99.90
6174;DHT22;3120;48.796;9.796;2023-04-03T05:48:22;3.30;1.00
6174;DHT22;3120;48.796;9.796;2023-04-03T05:50:48;3.30;1.00
6174;DHT22;3120;48.796;9.796;2023-04-03T05:53:30;3.40;99.90
6174;DHT22;3120;48.796;9.796;2023-04-03T05:55:56;3.50;99.90
6174;DHT22;3120;48.796;9.796;2023-04-03T05:58:22;3.50;1.00
6174;DHT22;3120;48.796;9.796;2023-04-03T06:00:47;3.60;99.90
6174;DHT22;3120;48.796;9.796;2023-04-03T06:03:13;3.60;99.90
6174;DHT22;3120;48.796;9.796;2023-04-03T06:05:39;3.50;99.90
6174;DHT22;3120;48.796;9.796;2023-04-03T06:08:05;4.60;99.90
6174;DHT22;3120;48.796;9.796;2023-04-03T06:10:31;3.70;99.90
6174;DHT22;3120;48.796;9.796;2023-04-03T06:12:56;4.60;99.90
6174;DHT22;3120;48.796;9.796;2023-04-03T06:15:22;3.00;99.90
6174;DHT22;3120;48.796;9.796;2023-04-03T06:17:48;4.70;99.90
6174;DHT22;3120;48.796;9.796;2023-04-03T06:20:14;4.70;99.90
6174;DHT22;3120;48.796;9.796;2023-04-03T06:22:40;3.90;99.90
6174;DHT22;3120;48.796;9.796;2023-04-03T06:25:08;4.00;29.90
6174;DHT22;3120;48.796;9.796;2023-04-03T06:27:35;5.60;99.90
6174;DHT22;3120;48.796;9.796;2023-04-03T06:30:03;4.00;99.90
6174;DHT22;3120;48.796;9.796;2023-04-03T06:32:29;2.70;99.90
6174;DHT22;3120;48.796;9.796;2023-04-03T06:34:55;4.10;1.00
6174;DHT22;3120;48.796;9.796;2023-04-03T06:37:22;4.10;99.90
6174;DHT22;3120;48.796;9.796;2023-04-03T06:39:49;4.50;99.90
6174;DHT22;3120;48.796;9.796;2023-04-03T06:42:14;4.50;1.00
6174;DHT22;3120;48.796;9.796;2023-04-03T06:44:40;4.50;1.00
6174;DHT22;3120;48.796;9.796;2023-04-03T06:47:06;4.50;99.90
6174;DHT22;3120;48.796;9.796;2023-04-03T06:49:35;4.40;1.00
6174;DHT22;3120;48.796;9.796;2023-04-03T06:52:02;4.30;1.00
6174;DHT22;3120;48.796;9.796;2023-04-03T06:54:28;4.40;1.00
6174;DHT22;3120;48.796;9.796;2023-04-03T06:56:53;5.80;1.00
6174;DHT22;3120;48.796;9.796;2023-04-03T06:59:19;4.30;1.00
6174;DHT22;3120;48.796;9.796;2023-04-03T07:01:47;4.30;1.00
6174;DHT22;3120;48.796;9.796;2023-04-03T07:04:12;5.10;99.90
6174;DHT22;3120;48.796;9.796;2023-04-03T07:06:38;4.40;1.00
6174;DHT22;3120;48.796;9.796;2023-04-03T07:09:04;4.30;1.00
6174;DHT22;3120;48.796;9.796;2023-04-03T07:11:29;5.50;1.00
6174;DHT22;3120;48.796;9.796;2023-04-03T07:13:55;4.40;1.00
6174;DHT22;3120;48.796;9.796;2023-04-03T07:16:21;4.40;1.00
6174;DHT22;3120;48.796;9.796;2023-04-03T07:18:47;4.50;1.00
6174;DHT22;3120;48.796;9.796;2023-04-03T07:21:13;5.80;1.00
6174;DHT22;3120;48.796;9.796;2023-04-03T07:23:38;4.60;1.00
6174;DHT22;3120;48.796;9.796;2023-04-03T07:26:04;5.50;1.00
6174;DHT22;3120;48.796;9.796;2023-04-03T07:28:30;5.70;1.00
6174;DHT22;3120;48.796;9.796;2023-04-03T07:31:05;5.40;1.00
6174;DHT22;3120;48.796;9.796;2023-04-03T07:33:34;6.20;99.90
6174;DHT22;3120;48.796;9.796;2023-04-03T07:36:00;6.60;1.00
6174;DHT22;3120;48.796;9.796;2023-04-03T07:38:26;4.90;99.90
6174;DHT22;3120;48.796;9.796;2023-04-03T07:40:52;5.80;99.90
6174;DHT22;3120;48.796;9.796;2023-04-03T07:43:19;5.30;99.90
6174;DHT22;3120;48.796;9.796;2023-04-03T07:45:45;4.90;1.00
6174;DHT22;3120;48.796;9.796;2023-04-03T07:48:12;5.10;99.90
6174;DHT22;3120;48.796;9.796;2023-04-03T07:50:41;5.00;99.90
6174;DHT22;3120;48.796;9.796;2023-04-03T07:53:08;5.10;99.90
6174;DHT22;3120;48.796;9.796;2023-04-03T07:58:43;5.20;99.90
6174;DHT22;3120;48.796;9.796;2023-04-03T08:01:08;5.50;99.90
6174;DHT22;3120;48.796;9.796;2023-04-03T08:03:34;5.50;99.90
6174;DHT22;3120;48.796;9.796;2023-04-03T08:06:06;5.50;99.90
6174;DHT22;3120;48.796;9.796;2023-04-03T08:08:32;6.00;99.90
6174;DHT22;3120;48.796;9.796;2023-04-03T08:10:59;6.40;59.80
6174;DHT22;3120;48.796;9.796;2023-04-03T08:13:26;6.50;96.70
6174;DHT22;3120;48.796;9.796;2023-04-03T08:15:51;5.60;99.90
6174;DHT22;3120;48.796;9.796;2023-04-03T08:18:17;5.30;99.90
6174;DHT22;3120;48.796;9.796;2023-04-03T08:20:44;6.20;99.90
6174;DHT22;3120;48.796;9.796;2023-04-03T08:23:10;5.30;99.90
6174;DHT22;3120;48.796;9.796;2023-04-03T08:25:40;5.90;99.90
6174;DHT22;3120;48.796;9.796;2023-04-03T08:28:06;6.80;12.40
6174;DHT22;3120;48.796;9.796;2023-04-03T08:30:32;5.70;1.00
6174;DHT22;3120;48.796;9.796;2023-04-03T08:33:00;5.70;1.00
6174;DHT22;3120;48.796;9.796;2023-04-03T08:35:27;5.60;16.10
6174;DHT22;3120;48.796;9.796;2023-04-03T08:37:52;5.80;1.00
6174;DHT22;3120;48.796;9.796;2023-04-03T08:40:18;6.10;1.00
6174;DHT22;3120;48.796;9.796;2023-04-03T08:45:41;6.10;1.00
6174;DHT22;3120;48.796;9.796;2023-04-03T08:48:15;6.30;1.00
6174;DHT22;3120;48.796;9.796;2023-04-03T08:50:49;6.30;1.00
6174;DHT22;3120;48.796;9.796;2023-04-03T08:53:25;6.20;1.00
6174;DHT22;3120;48.796;9.796;2023-04-03T08:55:54;6.40;1.00
6174;DHT22;3120;48.796;9.796;2023-04-03T09:01:46;6.70;1.00
6174;DHT22;3120;48.796;9.796;2023-04-03T09:04:14;6.70;99.90
6174;DHT22;3120;48.796;9.796;2023-04-03T09:06:45;6.50;1.00
6174;DHT22;3120;48.796;9.796;2023-04-03T09:09:36;6.30;1.00
6174;DHT22;3120;48.796;9.796;2023-04-03T09:12:24;6.50;1.00
6174;DHT22;3120;48.796;9.796;2023-04-03T09:17:35;6.30;1.00
6174;DHT22;3120;48.796;9.796;2023-04-03T09:20:17;6.30;1.00
6174;DHT22;3120;48.796;9.796;2023-04-03T09:22:45;6.40;1.00
6174;DHT22;3120;48.796;9.796;2023-04-03T09:25:35;7.10;1.00
6174;DHT22;3120;48.796;9.796;2023-04-03T09:28:03;7.40;1.00
6174;DHT22;3120;48.796;9.796;2023-04-03T09:30:29;7.40;99.90
6174;DHT22;3120;48.796;9.796;2023-04-03T09:32:57;6.90;1.00
6174;DHT22;3120;48.796;9.796;2023-04-03T09:35:33;6.10;99.90
6174;DHT22;3120;48.796;9.796;2023-04-03T09:38:01;7.20;99.90
6174;DHT22;3120;48.796;9.796;2023-04-03T09:40:34;6.10;99.90
6174;DHT22;3120;48.796;9.796;2023-04-03T09:43:23;6.20;99.90
6174;DHT22;3120;48.796;9.796;2023-04-03T09:45:50;6.10;99.90
6174;DHT22;3120;48.796;9.796;2023-04-03T09:48:22;6.30;99.90
6174;DHT22;3120;48.796;9.796;2023-04-03T09:50:53;6.50;99.90
6174;DHT22;3120;48.796;9.796;2023-04-03T09:53:44;6.50;99.90
6174;DHT22;3120;48.796;9.796;2023-04-03T09:58:47;6.70;99.90
6174;DHT22;3120;48.796;9.796;2023-04-03T10:01:33;6.80;99.90
6174;DHT22;3120;48.796;9.796;2023-04-03T10:04:12;6.70;99.90
6174;DHT22;3120;48.796;9.796;2023-04-03T10:06:53;6.60;99.90
6174;DHT22;3120;48.796;9.796;2023-04-03T10:09:27;6.70;99.90
6174;DHT22;3120;48.796;9.796;2023-04-03T10:14:52;6.60;99.90
6174;DHT22;3120;48.796;9.796;2023-04-03T10:23:21;6.60;99.90
6174;DHT22;3120;48.796;9.796;2023-04-03T10:34:48;6.50;99.90
6174;DHT22;3120;48.796;9.796;2023-04-03T10:43:06;6.60;99.90
6174;DHT22;3120;48.796;9.796;2023-04-03T10:46:22;6.60;99.90
6174;DHT22;3120;48.796;9.796;2023-04-03T10:51:05;6.70;99.90
6174;DHT22;3120;48.796;9.796;2023-04-03T10:58:44;7.10;99.90
6174;DHT22;3120;48.796;9.796;2023-04-03T11:01:22;8.00;99.90
6174;DHT22;3120;48.796;9.796;2023-04-03T11:03:56;7.10;99.90
6174;DHT22;3120;48.796;9.796;2023-04-03T11:06:25;7.20;99.90
6174;DHT22;3120;48.796;9.796;2023-04-03T11:09:01;7.20;91.20
6174;DHT22;3120;48.796;9.796;2023-04-03T11:11:34;7.10;91.30
6174;DHT22;3120;48.796;9.796;2023-04-03T11:14:26;7.20;99.90
6174;DHT22;3120;48.796;9.796;2023-04-03T11:17:15;7.20;94.90
6174;DHT22;3120;48.796;9.796;2023-04-03T11:20:22;8.40;85.50
6174;DHT22;3120;48.796;9.796;2023-04-03T11:23:06;7.30;79.60
6174;DHT22;3120;48.796;9.796;2023-04-03T11:25:34;7.30;96.80
6174;DHT22;3120;48.796;9.796;2023-04-03T11:28:04;7.30;99.90
6174;DHT22;3120;48.796;9.796;2023-04-03T11:33:47;7.10;99.90
6174;DHT22;3120;48.796;9.796;2023-04-03T11:38:49;7.20;99.90
6174;DHT22;3120;48.796;9.796;2023-04-03T11:41:17;7.20;99.90
6174;DHT22;3120;48.796;9.796;2023-04-03T11:44:12;7.20;99.90
6174;DHT22;3120;48.796;9.796;2023-04-03T11:46:58;7.30;95.30
6174;DHT22;3120;48.796;9.796;2023-04-03T12:08:29;7.40;76.10
6174;DHT22;3120;48.796;9.796;2023-04-03T12:16:25;7.20;72.50
6174;DHT22;3120;48.796;9.796;2023-04-03T12:19:03;7.20;85.30
6174;DHT22;3120;48.796;9.796;2023-04-03T12:26:47;7.60;71.40
6174;DHT22;3120;48.796;9.796;2023-04-03T12:41:18;7.80;37.70
6174;DHT22;3120;48.796;9.796;2023-04-03T12:46:58;9.30;19.00
6174;DHT22;3120;48.796;9.796;2023-04-03T12:49:39;7.90;18.80
6174;DHT22;3120;48.796;9.796;2023-04-03T12:52:19;8.90;7.80
6174;DHT22;3120;48.796;9.796;2023-04-03T12:54:46;7.80;3.20
6174;DHT22;3120;48.796;9.796;2023-04-03T12:57:19;8.70;7.70
6174;DHT22;3120;48.796;9.796;2023-04-03T12:59:45;7.80;15.20
6174;DHT22;3120;48.796;9.796;2023-04-03T13:02:32;8.90;37.80
6174;DHT22;3120;48.796;9.796;2023-04-03T13:05:08;10.20;10.70
6174;DHT22;3120;48.796;9.796;2023-04-03T13:07:37;7.80;10.30
6174;DHT22;3120;48.796;9.796;2023-04-03T13:10:17;8.90;7.50
6174;DHT22;3120;48.796;9.796;2023-04-03T13:12:56;8.00;1.00
6174;DHT22;3120;48.796;9.796;2023-04-03T13:15:30;7.00;1.00
6174;DHT22;3120;48.796;9.796;2023-04-03T13:18:05;8.00;1.00
6174;DHT22;3120;48.796;9.796;2023-04-03T13:20:34;7.90;18.40
6174;DHT22;3120;48.796;9.796;2023-04-03T13:23:22;7.90;1.00
6174;DHT22;3120;48.796;9.796;2023-04-03T13:25:51;10.30;12.30
6174;DHT22;3120;48.796;9.796;2023-04-03T13:33:25;7.70;19.70
6174;DHT22;3120;48.796;9.796;2023-04-03T13:38:31;7.80;11.40
6174;DHT22;3120;48.796;9.796;2023-04-03T13:43:46;9.30;11.40
6174;DHT22;3120;48.796;9.796;2023-04-03T13:48:46;7.50;20.80
6174;DHT22;3120;48.796;9.796;2023-04-03T13:51:28;8.10;10.60
6174;DHT22;3120;48.796;9.796;2023-04-03T13:54:10;7.30;4.70
6174;DHT22;3120;48.796;9.796;2023-04-03T13:56:40;9.30;27.00
6174;DHT22;3120;48.796;9.796;2023-04-03T14:07:05;9.00;25.50
6174;DHT22;3120;48.796;9.796;2023-04-03T14:09:34;8.00;1.00
6174;DHT22;3120;48.796;9.796;2023-04-03T14:12:06;7.50;13.60
6174;DHT22;3120;48.796;9.796;2023-04-03T14:14:42;9.30;1.00
6174;DHT22;3120;48.796;9.796;2023-04-03T14:17:19;7.90;1.00
6174;DHT22;3120;48.796;9.796;2023-04-03T14:19:47;10.10;1.00
6174;DHT22;3120;48.796;9.796;2023-04-03T14:22:22;8.90;1.00
6174;DHT22;3120;48.796;9.796;2023-04-03T14:24:49;9.20;1.00
6174;DHT22;3120;48.796;9.796;2023-04-03T14:27:23;8.80;1.00
6174;DHT22;3120;48.796;9.796;2023-04-03T14:29:51;9.30;1.00
6174;DHT22;3120;48.796;9.796;2023-04-03T14:32:20;7.40;22.70
6174;DHT22;3120;48.796;9.796;2023-04-03T15:10:59;7.20;1.00
6174;DHT22;3120;48.796;9.796;2023-04-03T15:13:26;9.30;1.00
6174;DHT22;3120;48.796;9.796;2023-04-03T15:15:52;7.00;1.00
6174;DHT22;3120;48.796;9.796;2023-04-03T15:18:25;5.90;1.00
6174;DHT22;3120;48.796;9.796;2023-04-03T15:20:53;6.70;1.00
6174;DHT22;3120;48.796;9.796;2023-04-03T15:23:19;8.40;1.00
6174;DHT22;3120;48.796;9.796;2023-04-03T15:25:46;7.20;1.00
6174;DHT22;3120;48.796;9.796;2023-04-03T15:28:23;7.40;1.00
6174;DHT22;3120;48.796;9.796;2023-04-03T15:30:51;9.30;1.00
6174;DHT22;3120;48.796;9.796;2023-04-03T15:33:17;7.40;1.00
6174;DHT22;3120;48.796;9.796;2023-04-03T15:35:43;9.20;1.00
6174;DHT22;3120;48.796;9.796;2023-04-03T15:38:09;7.50;1.00
6174;DHT22;3120;48.796;9.796;2023-04-03T15:45:44;7.30;1.00
6174;DHT22;3120;48.796;9.796;2023-04-03T15:48:11;7.30;1.00
6174;DHT22;3120;48.796;9.796;2023-04-03T15:50:37;7.00;1.70
6174;DHT22;3120;48.796;9.796;2023-04-03T15:53:03;8.90;1.00
6174;DHT22;3120;48.796;9.796;2023-04-03T15:55:31;6.50;1.00
6174;DHT22;3120;48.796;9.796;2023-04-03T15:57:58;6.60;1.00
6174;DHT22;3120;48.796;9.796;2023-04-03T16:00:25;8.40;1.00
6174;DHT22;3120;48.796;9.796;2023-04-03T16:02:55;7.50;1.00
6174;DHT22;3120;48.796;9.796;2023-04-03T16:05:22;6.90;1.00
6174;DHT22;3120;48.796;9.796;2023-04-03T16:07:48;7.10;1.00
6174;DHT22;3120;48.796;9.796;2023-04-03T16:10:16;7.30;1.00
6174;DHT22;3120;48.796;9.796;2023-04-03T16:12:42;10.00;1.00
6174;DHT22;3120;48.796;9.796;2023-04-03T16:15:21;9.70;1.00
6174;DHT22;3120;48.796;9.796;2023-04-03T16:17:47;7.30;1.00
6174;DHT22;3120;48.796;9.796;2023-04-03T16:20:14;9.00;1.00
6174;DHT22;3120;48.796;9.796;2023-04-03T16:22:40;8.40;1.00
6174;DHT22;3120;48.796;9.796;2023-04-03T16:25:07;6.90;1.00
6174;DHT22;3120;48.796;9.796;2023-04-03T16:27:34;6.90;1.00
6174;DHT22;3120;48.796;9.796;2023-04-03T16:30:00;7.70;1.00
6174;DHT22;3120;48.796;9.796;2023-04-03T16:32:28;6.90;1.00
6174;DHT22;3120;48.796;9.796;2023-04-03T16:34:54;9.20;1.00
6174;DHT22;3120;48.796;9.796;2023-04-03T16:37:20;9.10;2.70
6174;DHT22;3120;48.796;9.796;2023-04-03T16:39:46;9.20;1.00
6174;DHT22;3120;48.796;9.796;2023-04-03T16:42:12;6.80;1.00
6174;DHT22;3120;48.796;9.796;2023-04-03T16:44:41;6.70;57.70
6174;DHT22;3120;48.796;9.796;2023-04-03T16:47:07;8.90;5.40
6174;DHT22;3120;48.796;9.796;2023-04-03T16:49:33;6.50;1.00
6174;DHT22;3120;48.796;9.796;2023-04-03T16:52:03;6.40;1.00
6174;DHT22;3120;48.796;9.796;2023-04-03T16:54:30;8.80;1.00
6174;DHT22;3120;48.796;9.796;2023-04-03T16:56:56;8.20;1.00
6174;DHT22;3120;48.796;9.796;2023-04-03T17:01:51;6.30;1.00
6174;DHT22;3120;48.796;9.796;2023-04-03T17:04:18;6.40;3.50
6174;DHT22;3120;48.796;9.796;2023-04-03T17:06:44;8.60;1.00
6174;DHT22;3120;48.796;9.796;2023-04-03T17:09:11;6.40;1.00
6174;DHT22;3120;48.796;9.796;2023-04-03T17:11:37;6.40;2.60
6174;DHT22;3120;48.796;9.796;2023-04-03T17:14:04;8.10;5.40
6174;DHT22;3120;48.796;9.796;2023-04-03T17:16:31;6.40;6.20
6174;DHT22;3120;48.796;9.796;2023-04-03T17:18:59;6.30;9.10
6174;DHT22;3120;48.796;9.796;2023-04-03T17:21:31;6.30;15.60
6174;DHT22;3120;48.796;9.796;2023-04-03T17:24:04;7.70;12.00
6174;DHT22;3120;48.796;9.796;2023-04-03T17:26:32;6.20;12.60
6174;DHT22;3120;48.796;9.796;2023-04-03T17:28:58;6.10;21.30
6174;DHT22;3120;48.796;9.796;2023-04-03T17:31:24;6.10;21.20
6174;DHT22;3120;48.796;9.796;2023-04-03T17:33:49;6.10;24.20
6174;DHT22;3120;48.796;9.796;2023-04-03T17:36:15;6.00;23.20
6174;DHT22;3120;48.796;9.796;2023-04-03T17:38:41;6.80;21.20
6174;DHT22;3120;48.796;9.796;2023-04-03T17:41:07;6.90;22.20
6174;DHT22;3120;48.796;9.796;2023-04-03T17:43:33;7.90;25.80
6174;DHT22;3120;48.796;9.796;2023-04-03T17:46:02;6.00;25.40
6174;DHT22;3120;48.796;9.796;2023-04-03T17:48:29;7.60;23.80
6174;DHT22;3120;48.796;9.796;2023-04-03T17:50:55;6.00;27.30
6174;DHT22;3120;48.796;9.796;2023-04-03T17:53:21;5.90;36.70
6174;DHT22;3120;48.796;9.796;2023-04-03T17:55:46;5.90;52.20
6174;DHT22;3120;48.796;9.796;2023-04-03T17:58:14;6.70;33.20
6174;DHT22;3120;48.796;9.796;2023-04-03T18:00:40;7.50;30.70
6174;DHT22;3120;48.796;9.796;2023-04-03T18:03:06;8.20;39.90
6174;DHT22;3120;48.796;9.796;2023-04-03T18:05:31;7.60;52.80
6174;DHT22;3120;48.796;9.796;2023-04-03T18:07:58;7.10;71.50
6174;DHT22;3120;48.796;9.796;2023-04-03T18:10:24;5.70;80.90
6174;DHT22;3120;48.796;9.796;2023-04-03T18:12:53;7.80;93.30
6174;DHT22;3120;48.796;9.796;2023-04-03T18:15:25;7.50;97.10
6174;DHT22;3120;48.796;9.796;2023-04-03T18:17:52;5.80;88.00
6174;DHT22;3120;48.796;9.796;2023-04-03T18:20:22;5.80;91.10
6174;DHT22;3120;48.796;9.796;2023-04-03T18:22:48;7.60;98.70
6174;DHT22;3120;48.796;9.796;2023-04-03T18:25:14;5.50;99.90
6174;DHT22;3120;48.796;9.796;2023-04-03T18:27:42;5.70;99.90
6174;DHT22;3120;48.796;9.796;2023-04-03T18:30:11;5.60;99.90
6174;DHT22;3120;48.796;9.796;2023-04-03T18:32:37;5.60;99.90
6174;DHT22;3120;48.796;9.796;2023-04-03T18:35:03;5.50;99.90
6174;DHT22;3120;48.796;9.796;2023-04-03T18:37:29;5.50;99.90
6174;DHT22;3120;48.796;9.796;2023-04-03T18:39:56;5.40;99.90
6174;DHT22;3120;48.796;9.796;2023-04-03T18:42:24;6.40;99.90
6174;DHT22;3120;48.796;9.796;2023-04-03T18:44:53;5.40;99.90
6174;DHT22;3120;48.796;9.796;2023-04-03T18:47:26;6.30;99.90
6174;DHT22;3120;48.796;9.796;2023-04-03T18:49:56;5.30;99.90
6174;DHT22;3120;48.796;9.796;2023-04-03T18:52:22;6.40;99.90
6174;DHT22;3120;48.796;9.796;2023-04-03T18:54:50;7.30;99.90
6174;DHT22;3120;48.796;9.796;2023-04-03T18:57:16;6.20;99.90
6174;DHT22;3120;48.796;9.796;2023-04-03T18:59:41;6.70;99.90
6174;DHT22;3120;48.796;9.796;2023-04-03T19:02:11;6.10;99.90
6174;DHT22;3120;48.796;9.796;2023-04-03T19:04:40;6.50;99.90
6174;DHT22;3120;48.796;9.796;2023-04-03T19:07:10;6.20;99.90
6174;DHT22;3120;48.796;9.796;2023-04-03T19:09:54;5.50;99.90
6174;DHT22;3120;48.796;9.796;2023-04-03T19:15:13;4.60;99.90
6174;DHT22;3120;48.796;9.796;2023-04-03T19:17:42;4.70;99.90
6174;DHT22;3120;48.796;9.796;2023-04-03T19:22:59;4.40;99.90
6174;DHT22;3120;48.796;9.796;2023-04-03T19:25:42;4.60;99.90
6174;DHT22;3120;48.796;9.796;2023-04-03T19:30:52;4.60;99.90
6174;DHT22;3120;48.796;9.796;2023-04-03T19:33:19;4.50;99.90